createdAt,value
2022-12-25T00:01:40.959Z,0.10
2022-12-25T00:04:10.942Z,0.10
2022-12-25T00:06:40.964Z,0.10
2022-12-25T00:09:12.304Z,0.20
2022-12-25T00:11:42.279Z,0.20
2022-12-25T00:14:12.327Z,0.10
2022-12-25T00:16:42.424Z,0.10
2022-12-25T00:19:12.461Z,0.10
2022-12-25T00:21:42.300Z,0.10
2022-12-25T00:24:13.860Z,0.00
2022-12-25T00:26:43.742Z,0.10
2022-12-25T00:29:15.949Z,0.10
2022-12-25T00:31:45.919Z,0.10
2022-12-25T00:34:15.853Z,0.10
2022-12-25T00:36:45.764Z,0.93
2022-12-25T00:39:17.182Z,0.38
2022-12-25T00:42:04.557Z,0.35
2022-12-25T00:44:34.753Z,0.20
2022-12-25T00:47:04.940Z,0.30
2022-12-25T00:50:54.672Z,0.10
2022-12-25T00:53:25.451Z,0.22
2022-12-25T00:55:56.523Z,0.60
2022-12-25T00:58:27.940Z,0.50
2022-12-25T01:00:58.129Z,1.38
2022-12-25T01:03:28.612Z,0.50
2022-12-25T01:06:02.175Z,0.20
2022-12-25T01:08:34.885Z,1.30
2022-12-25T01:11:06.304Z,0.73
2022-12-25T01:13:39.634Z,0.30
2022-12-25T01:16:11.154Z,0.35
2022-12-25T01:18:41.242Z,0.15
2022-12-25T01:21:16.465Z,0.20
2022-12-25T01:23:46.859Z,0.30
2022-12-25T01:26:18.264Z,0.20
2022-12-25T01:28:48.920Z,0.25
2022-12-25T01:31:22.011Z,0.10
2022-12-25T01:33:52.580Z,0.10
2022-12-25T01:36:27.574Z,0.10
2022-12-25T01:38:57.702Z,0.10
2022-12-25T01:41:28.540Z,0.10
2022-12-25T01:44:06.527Z,0.10
2022-12-25T01:46:37.236Z,0.20
2022-12-25T01:49:10.391Z,0.15
2022-12-25T01:51:45.468Z,0.20
2022-12-25T01:54:19.320Z,0.22
2022-12-25T01:56:50.730Z,0.30
2022-12-25T01:59:24.443Z,0.20
2022-12-25T02:01:54.557Z,0.10
2022-12-25T02:04:39.270Z,0.20
2022-12-25T02:07:15.200Z,0.20
2022-12-25T02:09:45.938Z,0.10
2022-12-25T02:12:23.259Z,0.30
2022-12-25T02:15:01.118Z,0.20
2022-12-25T02:17:42.499Z,0.10
2022-12-25T02:20:42.860Z,0.25
2022-12-25T02:24:02.793Z,0.10
2022-12-25T02:27:03.292Z,0.30
2022-12-25T02:29:44.251Z,0.20
2022-12-25T02:32:21.222Z,0.10
2022-12-25T02:34:57.639Z,0.20
2022-12-25T02:37:33.562Z,0.17
2022-12-25T02:40:10.805Z,0.40
2022-12-25T02:43:05.362Z,0.10
2022-12-25T02:46:03.016Z,0.20
2022-12-25T02:48:54.921Z,0.20
2022-12-25T02:51:46.606Z,0.30
2022-12-25T02:54:40.441Z,0.28
2022-12-25T02:57:31.291Z,1.02
2022-12-25T03:00:20.308Z,0.70
2022-12-25T03:03:10.377Z,2.30
2022-12-25T03:05:59.527Z,0.88
2022-12-25T03:08:36.172Z,1.40
2022-12-25T03:11:26.385Z,0.57
2022-12-25T03:14:20.280Z,0.88
2022-12-25T03:16:53.919Z,0.60
2022-12-25T03:19:46.888Z,0.50
2022-12-25T03:22:38.406Z,0.50
2022-12-25T03:25:27.018Z,0.68
2022-12-25T03:27:58.537Z,1.63
2022-12-25T03:31:11.455Z,1.50
2022-12-25T03:34:34.725Z,1.00
2022-12-25T03:37:45.100Z,1.20
2022-12-25T03:40:48.332Z,1.70
2022-12-25T03:43:46.901Z,3.60
2022-12-25T03:46:37.700Z,3.53
2022-12-25T03:52:11.286Z,2.80
2022-12-25T03:55:03.348Z,0.65
2022-12-25T03:57:54.361Z,1.65
2022-12-25T04:00:43.855Z,2.50
2022-12-25T04:03:31.162Z,5.85
2022-12-25T04:06:18.084Z,10.43
2022-12-25T04:09:06.844Z,7.38
2022-12-25T04:11:58.790Z,16.45
2022-12-25T04:14:49.364Z,16.65
2022-12-25T04:17:36.607Z,13.77
2022-12-25T04:20:25.264Z,7.05
2022-12-25T04:23:12.222Z,2.47
2022-12-25T04:26:00.999Z,2.28
2022-12-25T04:28:48.357Z,8.55
2022-12-25T04:31:35.327Z,9.30
2022-12-25T04:34:22.285Z,8.40
2022-12-25T04:36:52.182Z,6.38
2022-12-25T04:39:22.106Z,8.45
2022-12-25T04:41:53.492Z,7.90
2022-12-25T04:44:23.341Z,5.53
2022-12-25T04:46:53.474Z,9.63
2022-12-25T04:49:23.678Z,12.82
2022-12-25T04:51:53.681Z,11.93
2022-12-25T04:54:23.709Z,10.70
2022-12-25T04:56:55.143Z,14.68
2022-12-25T04:59:25.226Z,9.90
2022-12-25T05:01:55.308Z,12.93
2022-12-25T05:04:25.336Z,12.10
2022-12-25T05:06:55.295Z,6.43
2022-12-25T05:09:26.674Z,9.18
2022-12-25T05:11:58.023Z,9.55
2022-12-25T05:14:27.914Z,4.40
2022-12-25T05:16:57.683Z,8.73
2022-12-25T05:19:27.866Z,15.15
2022-12-25T05:21:58.131Z,67.85
2022-12-25T05:24:29.865Z,27.00
2022-12-25T05:27:01.311Z,16.50
2022-12-25T05:29:31.363Z,15.93
2022-12-25T05:32:01.356Z,31.45
2022-12-25T05:34:31.551Z,20.88
2022-12-25T05:37:01.505Z,16.65
2022-12-25T05:39:31.504Z,18.55
2022-12-25T05:42:03.002Z,34.10
2022-12-25T05:44:32.926Z,39.45
2022-12-25T05:47:02.888Z,19.80
2022-12-25T05:49:32.796Z,18.00
2022-12-25T05:52:02.783Z,18.77
2022-12-25T05:54:32.681Z,42.47
2022-12-25T05:57:04.708Z,16.77
2022-12-25T05:59:36.093Z,8.57
2022-12-25T06:02:06.406Z,12.40
2022-12-25T06:04:36.430Z,5.80
2022-12-25T06:07:06.308Z,4.80
2022-12-25T06:09:36.261Z,5.00
2022-12-25T06:12:07.822Z,14.55
2022-12-25T06:14:38.248Z,14.63
2022-12-25T06:17:08.145Z,2.38
2022-12-25T06:19:38.045Z,3.05
2022-12-25T06:22:08.044Z,3.17
2022-12-25T06:24:38.123Z,3.85
2022-12-25T06:27:09.595Z,6.55
2022-12-25T06:29:39.558Z,7.80
2022-12-25T06:32:09.424Z,6.55
2022-12-25T06:34:39.515Z,4.28
2022-12-25T06:37:09.704Z,13.85
2022-12-25T06:39:39.693Z,9.32
2022-12-25T06:42:11.168Z,5.45
2022-12-25T06:44:41.642Z,6.65
2022-12-25T06:47:11.703Z,4.05
2022-12-25T06:51:51.219Z,6.88
2022-12-25T06:54:21.201Z,8.98
2022-12-25T06:56:51.555Z,10.00
2022-12-25T06:59:21.599Z,7.63
2022-12-25T07:01:55.633Z,3.60
2022-12-25T07:04:32.360Z,2.97
2022-12-25T07:07:08.686Z,2.25
2022-12-25T07:09:40.250Z,0.80
2022-12-25T07:12:17.504Z,0.95
2022-12-25T07:14:50.405Z,0.70
2022-12-25T07:17:21.638Z,0.90
2022-12-25T07:19:52.261Z,0.95
2022-12-25T07:22:23.672Z,1.30
2022-12-25T07:24:53.531Z,1.38
2022-12-25T07:27:23.461Z,0.70
2022-12-25T07:29:53.341Z,0.50
2022-12-25T07:32:23.245Z,0.70
2022-12-25T07:34:53.183Z,1.10
2022-12-25T07:37:24.782Z,1.40
2022-12-25T07:39:54.783Z,1.38
2022-12-25T07:42:25.406Z,0.70
2022-12-25T07:44:55.787Z,0.55
2022-12-25T07:47:25.662Z,0.73
2022-12-25T07:49:55.644Z,0.70
2022-12-25T07:52:27.084Z,0.30
2022-12-25T07:54:56.983Z,0.10
2022-12-25T07:57:27.066Z,0.30
2022-12-25T07:59:56.906Z,0.50
2022-12-25T08:02:29.294Z,0.30
2022-12-25T08:05:00.024Z,0.10
2022-12-25T08:07:31.405Z,0.45
2022-12-25T08:10:01.541Z,0.30
2022-12-25T08:12:31.531Z,0.57
2022-12-25T08:15:01.547Z,0.30
2022-12-25T08:17:31.501Z,0.50
2022-12-25T08:20:01.503Z,0.30
2022-12-25T08:22:32.847Z,0.20
2022-12-25T08:25:02.740Z,0.20
2022-12-25T08:27:32.604Z,0.30
2022-12-25T08:30:02.657Z,0.30
2022-12-25T08:32:35.748Z,0.20
2022-12-25T08:35:06.200Z,0.40
2022-12-25T08:37:37.702Z,0.50
2022-12-25T08:40:09.792Z,0.20
2022-12-25T08:42:39.809Z,0.30
2022-12-25T08:45:11.846Z,0.20
2022-12-25T08:47:41.885Z,0.20
2022-12-25T08:50:12.504Z,0.25
2022-12-25T08:52:44.077Z,0.30
2022-12-25T08:55:13.962Z,0.20
2022-12-25T08:57:44.244Z,0.20
2022-12-25T09:00:15.609Z,0.10
2022-12-25T09:02:45.648Z,0.15
2022-12-25T09:05:15.684Z,0.17
2022-12-25T09:07:47.034Z,0.17
2022-12-25T09:10:16.985Z,0.20
2022-12-25T09:12:46.964Z,0.20
2022-12-25T09:15:17.084Z,0.20
2022-12-25T09:17:46.943Z,0.10
2022-12-25T09:20:16.915Z,0.10
2022-12-25T09:22:48.423Z,0.10
2022-12-25T09:25:18.754Z,0.10
2022-12-25T09:27:48.722Z,0.10
2022-12-25T09:30:18.829Z,0.10
2022-12-25T09:32:48.671Z,0.10
2022-12-25T09:35:19.423Z,0.10
2022-12-25T09:37:50.800Z,0.17
2022-12-25T09:40:23.665Z,0.30
2022-12-25T09:42:57.591Z,0.10
2022-12-25T09:45:33.219Z,0.10
2022-12-25T09:48:03.182Z,0.00
2022-12-25T09:51:57.094Z,0.22
2022-12-25T09:54:41.702Z,0.13
2022-12-25T09:57:15.104Z,0.40
2022-12-25T09:59:47.882Z,0.10
2022-12-25T10:05:55.045Z,0.10
2022-12-25T10:08:56.668Z,0.40
2022-12-25T10:11:45.064Z,0.40
2022-12-25T10:14:27.904Z,0.22
2022-12-25T10:17:17.546Z,0.20
2022-12-25T10:19:55.111Z,0.15
2022-12-25T10:22:33.943Z,0.13
2022-12-25T10:25:07.810Z,0.10
2022-12-25T10:27:43.133Z,0.10
2022-12-25T10:30:19.074Z,0.10
2022-12-25T10:32:50.314Z,0.00
2022-12-25T10:35:24.004Z,0.10
2022-12-25T10:38:01.449Z,0.30
2022-12-25T10:40:40.984Z,0.10
2022-12-25T10:43:15.203Z,0.20
2022-12-25T10:45:50.095Z,0.22
2022-12-25T10:48:26.746Z,0.40
2022-12-25T10:50:56.956Z,0.20
2022-12-25T10:53:28.855Z,0.10
2022-12-25T10:56:02.922Z,0.10
2022-12-25T10:58:33.989Z,0.10
2022-12-25T11:01:08.890Z,0.10
2022-12-25T11:03:42.541Z,0.20
2022-12-25T11:06:26.225Z,0.10
2022-12-25T11:09:00.309Z,0.00
2022-12-25T11:11:32.899Z,0.10
2022-12-25T11:14:05.214Z,0.10
2022-12-25T11:16:38.835Z,0.10
2022-12-25T11:19:31.126Z,0.30
2022-12-25T11:22:04.240Z,0.10
2022-12-25T11:24:36.574Z,0.10
2022-12-25T11:27:08.804Z,0.10
2022-12-25T11:29:45.491Z,0.10
2022-12-25T11:32:22.642Z,0.10
2022-12-25T11:34:53.781Z,0.10
2022-12-25T11:37:33.082Z,0.10
2022-12-25T11:40:03.479Z,0.15
2022-12-25T11:42:40.330Z,0.28
2022-12-25T11:45:17.452Z,0.20
2022-12-25T11:47:53.471Z,0.30
2022-12-25T11:50:31.103Z,0.10
2022-12-25T11:53:05.630Z,0.25
2022-12-25T11:55:42.163Z,0.70
2022-12-25T11:58:22.617Z,0.40
2022-12-25T12:00:58.001Z,0.88
2022-12-25T12:03:33.110Z,0.30
2022-12-25T12:06:08.863Z,0.35
2022-12-25T12:08:39.390Z,0.00
2022-12-25T12:11:20.952Z,0.00
2022-12-25T12:14:13.366Z,0.10
2022-12-25T12:16:43.652Z,0.10
2022-12-25T12:19:20.701Z,0.20
2022-12-25T12:21:52.424Z,0.10
2022-12-25T12:24:25.634Z,0.00
2022-12-25T12:27:08.043Z,0.10
2022-12-25T12:29:45.303Z,0.10
2022-12-25T12:32:39.833Z,0.10
2022-12-25T12:35:21.124Z,0.10
2022-12-25T12:37:55.230Z,0.20
2022-12-25T12:40:34.826Z,0.10
2022-12-25T12:43:05.562Z,0.25
2022-12-25T12:45:39.466Z,0.50
2022-12-25T12:51:51.616Z,0.10
2022-12-25T12:54:25.970Z,0.40
2022-12-25T12:57:01.680Z,0.10
2022-12-25T12:59:41.442Z,0.10
2022-12-25T13:03:00.296Z,0.35
2022-12-25T13:05:41.029Z,0.20
2022-12-25T13:08:34.709Z,0.20
2022-12-25T13:11:18.361Z,0.38
2022-12-25T13:13:50.356Z,0.22
2022-12-25T13:16:29.517Z,0.10
2022-12-25T13:19:00.267Z,0.10
2022-12-25T13:21:32.641Z,0.20
2022-12-25T13:24:09.234Z,0.00
2022-12-25T13:26:40.962Z,0.10
2022-12-25T13:29:25.823Z,0.10
2022-12-25T13:31:56.482Z,0.40
2022-12-25T13:34:32.963Z,0.55
2022-12-25T13:37:08.270Z,0.20
2022-12-25T13:39:48.653Z,0.70
2022-12-25T13:42:21.164Z,0.20
2022-12-25T13:44:55.389Z,0.20
2022-12-25T13:47:31.868Z,0.60
2022-12-25T13:50:14.801Z,0.20
2022-12-25T13:55:19.083Z,0.30
2022-12-25T13:57:54.706Z,0.88
2022-12-25T14:00:31.432Z,0.20
2022-12-25T14:03:02.353Z,1.20
2022-12-25T14:05:42.079Z,1.63
2022-12-25T14:08:23.124Z,2.33
2022-12-25T14:10:56.672Z,0.20
2022-12-25T14:13:29.742Z,0.20
2022-12-25T14:16:00.594Z,0.77
2022-12-25T14:18:31.336Z,3.08
2022-12-25T14:21:04.634Z,2.45
2022-12-25T14:23:45.068Z,2.83
2022-12-25T14:26:21.762Z,1.30
2022-12-25T14:28:53.636Z,2.72
2022-12-25T14:31:26.557Z,0.37
2022-12-25T14:33:57.523Z,1.83
2022-12-25T14:36:28.074Z,1.77
2022-12-25T14:39:02.834Z,1.45
2022-12-25T14:41:39.867Z,4.72
2022-12-25T14:44:33.920Z,1.55
2022-12-25T14:47:16.162Z,0.90
2022-12-25T14:49:46.759Z,0.33
2022-12-25T14:52:23.711Z,3.85
2022-12-25T14:54:58.440Z,3.35
2022-12-25T14:57:34.752Z,1.73
2022-12-25T15:00:22.088Z,1.83
2022-12-25T15:02:56.428Z,2.40
2022-12-25T15:05:33.879Z,1.10
2022-12-25T15:08:22.298Z,2.63
2022-12-25T15:11:02.132Z,3.47
2022-12-25T15:13:34.722Z,0.68
2022-12-25T15:16:12.662Z,0.70
2022-12-25T15:18:46.984Z,1.30
2022-12-25T15:21:19.535Z,1.15
2022-12-25T15:23:49.751Z,0.70
2022-12-25T15:26:19.662Z,0.70
2022-12-25T15:28:51.310Z,3.50
2022-12-25T15:31:25.442Z,0.98
2022-12-25T15:33:56.832Z,2.80
2022-12-25T15:36:27.921Z,3.45
2022-12-25T15:38:58.124Z,4.43
2022-12-25T15:41:49.044Z,1.25
2022-12-25T15:44:20.467Z,1.55
2022-12-25T15:46:50.728Z,1.10
2022-12-25T15:51:51.354Z,1.55
2022-12-25T15:54:21.585Z,2.80
2022-12-25T15:56:54.104Z,2.13
2022-12-25T15:59:25.691Z,1.75
2022-12-25T16:01:57.917Z,0.30
2022-12-25T16:04:31.538Z,1.00
2022-12-25T16:07:03.212Z,9.20
2022-12-25T16:09:32.985Z,1.98
2022-12-25T16:12:02.760Z,0.15
2022-12-25T16:14:32.692Z,3.58
2022-12-25T16:17:02.638Z,0.20
2022-12-25T16:19:32.819Z,0.30
2022-12-25T16:22:04.243Z,0.20
2022-12-25T16:24:34.084Z,0.17
2022-12-25T16:27:03.891Z,0.40
2022-12-25T16:29:34.029Z,1.95
2022-12-25T16:32:04.231Z,0.90
2022-12-25T16:34:34.135Z,1.13
2022-12-25T16:37:08.723Z,1.58
2022-12-25T16:39:38.629Z,5.55
2022-12-25T16:42:09.462Z,8.50
2022-12-25T16:44:39.780Z,14.93
2022-12-25T16:47:09.832Z,1.88
2022-12-25T16:49:39.938Z,2.60
2022-12-25T16:52:11.365Z,0.10
2022-12-25T16:54:41.362Z,0.20
2022-12-25T16:57:11.242Z,0.20
2022-12-25T16:59:41.935Z,0.20
2022-12-25T17:02:17.496Z,0.10
2022-12-25T17:04:48.850Z,0.60
2022-12-25T17:07:20.638Z,1.20
2022-12-25T17:09:51.552Z,2.00
2022-12-25T17:12:21.382Z,3.78
2022-12-25T17:14:51.383Z,11.70
2022-12-25T17:17:21.241Z,15.65
2022-12-25T17:19:51.245Z,29.83
2022-12-25T17:22:22.870Z,26.67
2022-12-25T17:24:52.764Z,12.43
2022-12-25T17:27:22.611Z,10.95
2022-12-25T17:29:52.605Z,16.38
2022-12-25T17:32:22.598Z,8.98
2022-12-25T17:34:52.492Z,12.48
2022-12-25T17:37:25.290Z,16.63
2022-12-25T17:42:24.542Z,13.10
2022-12-25T17:44:54.420Z,19.52
2022-12-25T17:47:24.521Z,15.73
2022-12-25T17:49:54.546Z,13.45
2022-12-25T17:52:25.846Z,10.30
2022-12-25T17:54:57.344Z,2.45
2022-12-25T17:57:27.702Z,3.10
2022-12-25T17:59:57.626Z,2.53
2022-12-25T18:02:28.901Z,2.85
2022-12-25T18:04:59.622Z,2.53
2022-12-25T18:07:31.086Z,1.75
2022-12-25T18:10:00.972Z,1.88
2022-12-25T18:12:30.734Z,1.67
2022-12-25T18:15:00.608Z,1.65
2022-12-25T18:17:30.703Z,1.80
2022-12-25T18:20:00.586Z,1.83
2022-12-25T18:22:31.993Z,1.90
2022-12-25T18:25:01.857Z,1.48
2022-12-25T18:27:31.739Z,1.75
2022-12-25T18:30:01.641Z,1.13
2022-12-25T18:32:31.642Z,1.73
2022-12-25T18:35:01.509Z,2.13
2022-12-25T18:37:39.428Z,3.70
2022-12-25T18:40:11.762Z,2.88
2022-12-25T18:42:41.671Z,4.72
2022-12-25T18:45:14.816Z,4.78
2022-12-25T18:47:45.045Z,2.38
2022-12-25T18:51:51.903Z,4.22
2022-12-25T18:54:21.773Z,2.45
2022-12-25T18:56:53.563Z,1.77
2022-12-25T18:59:23.747Z,4.83
2022-12-25T19:01:53.768Z,2.00
2022-12-25T19:04:23.918Z,1.83
2022-12-25T19:06:55.445Z,2.45
2022-12-25T19:09:25.405Z,10.57
2022-12-25T19:11:57.404Z,8.02
2022-12-25T19:14:28.627Z,6.20
2022-12-25T19:16:59.330Z,14.32
2022-12-25T19:19:29.363Z,14.45
2022-12-25T19:22:01.083Z,6.80
2022-12-25T19:24:31.024Z,5.22
2022-12-25T19:27:01.013Z,13.52
2022-12-25T19:29:30.984Z,17.75
2022-12-25T19:32:01.221Z,19.48
2022-12-25T19:34:31.162Z,9.07
2022-12-25T19:37:02.635Z,10.88
2022-12-25T19:39:32.467Z,13.10
2022-12-25T19:42:02.305Z,13.25
2022-12-25T19:44:32.283Z,8.77
2022-12-25T19:47:02.048Z,5.05
2022-12-25T19:49:31.923Z,6.00
2022-12-25T19:52:03.471Z,16.00
2022-12-25T19:54:33.546Z,9.82
2022-12-25T19:57:03.545Z,7.95
2022-12-25T19:59:33.501Z,7.07
2022-12-25T20:02:03.461Z,10.05
2022-12-25T20:04:33.604Z,5.97
2022-12-25T20:07:05.004Z,5.25
2022-12-25T20:09:35.003Z,5.85
2022-12-25T20:12:05.129Z,7.88
2022-12-25T20:14:35.071Z,4.95
2022-12-25T20:17:04.956Z,2.80
2022-12-25T20:19:36.050Z,9.05
2022-12-25T20:22:07.443Z,11.60
2022-12-25T20:24:37.506Z,26.77
2022-12-25T20:27:07.442Z,27.90
2022-12-25T20:29:37.393Z,27.13
2022-12-25T20:32:07.994Z,32.72
2022-12-25T20:34:38.334Z,32.63
2022-12-25T20:37:09.711Z,29.48
2022-12-25T20:39:40.165Z,16.67
2022-12-25T20:42:10.562Z,10.88
2022-12-25T20:44:40.584Z,8.40
2022-12-25T20:47:10.425Z,7.03
2022-12-25T20:49:40.315Z,7.47
2022-12-25T20:52:12.409Z,6.70
2022-12-25T20:54:42.684Z,7.80
2022-12-25T20:57:12.642Z,5.88
2022-12-25T20:59:44.779Z,3.55
2022-12-25T21:02:34.252Z,4.70
2022-12-25T21:05:04.931Z,3.05
2022-12-25T21:07:36.722Z,5.35
2022-12-25T21:10:08.020Z,5.32
2022-12-25T21:12:38.042Z,3.20
2022-12-25T21:15:15.111Z,4.68
2022-12-25T21:17:45.771Z,3.60
2022-12-25T21:20:15.782Z,3.40
2022-12-25T21:22:47.208Z,1.55
2022-12-25T21:25:17.312Z,5.30
2022-12-25T21:27:47.112Z,10.02
2022-12-25T21:30:17.270Z,1.85
2022-12-25T21:33:04.113Z,2.95
2022-12-25T21:35:35.039Z,3.15
2022-12-25T21:38:06.970Z,1.55
2022-12-25T21:40:38.471Z,4.60
2022-12-25T21:43:09.345Z,2.50
2022-12-25T21:45:39.157Z,3.92
2022-12-25T21:48:09.339Z,2.33
2022-12-25T21:52:08.907Z,8.60
2022-12-25T21:54:38.889Z,7.20
2022-12-25T21:57:09.167Z,9.32
2022-12-25T21:59:39.223Z,5.55
2022-12-25T22:02:11.799Z,5.35
2022-12-25T22:04:42.636Z,7.63
2022-12-25T22:07:18.316Z,9.00
2022-12-25T22:09:49.539Z,7.03
2022-12-25T22:12:39.082Z,7.78
2022-12-25T22:15:11.887Z,5.82
2022-12-25T22:20:35.016Z,3.83
2022-12-25T22:23:07.470Z,5.80
2022-12-25T22:25:37.330Z,3.03
2022-12-25T22:28:08.876Z,3.03
2022-12-25T22:30:38.822Z,0.73
2022-12-25T22:33:08.816Z,1.67
2022-12-25T22:35:38.813Z,1.00
2022-12-25T22:38:10.488Z,0.80
2022-12-25T22:40:40.710Z,0.98
2022-12-25T22:43:10.860Z,0.95
2022-12-25T22:45:40.882Z,1.65
2022-12-25T22:48:10.759Z,1.08
2022-12-25T22:50:40.923Z,0.85
2022-12-25T22:53:12.513Z,1.13
2022-12-25T22:55:47.062Z,0.70
2022-12-25T22:58:17.405Z,1.42
2022-12-25T23:00:47.623Z,0.60
2022-12-25T23:03:17.581Z,0.63
2022-12-25T23:05:47.631Z,1.05
2022-12-25T23:08:19.258Z,0.60
2022-12-25T23:10:49.071Z,1.63
2022-12-25T23:13:36.743Z,1.15
2022-12-25T23:16:07.602Z,0.68
2022-12-25T23:18:54.582Z,1.10
2022-12-25T23:21:41.981Z,0.77
2022-12-25T23:24:31.403Z,0.90
2022-12-25T23:27:01.536Z,0.88
2022-12-25T23:29:36.283Z,0.60
2022-12-25T23:32:08.707Z,0.40
2022-12-25T23:34:40.833Z,2.20
2022-12-25T23:37:11.740Z,1.20
2022-12-25T23:39:43.124Z,1.25
2022-12-25T23:42:13.055Z,0.75
2022-12-25T23:44:43.022Z,1.20
2022-12-25T23:47:13.307Z,0.40
2022-12-25T23:49:43.250Z,1.55
2022-12-25T23:52:14.371Z,2.83
2022-12-25T23:54:45.641Z,0.50
2022-12-25T23:57:15.632Z,0.82
2022-12-25T23:59:45.563Z,1.17
